Flight Track Log - Related Links

Times and Time Zones

All times are in EDT time to prevent confusion due to time zone crossing. See the AAY861 flight status page for this flight to view local times or setup timezone preferences in your user account.

Time Position Orientation Groundspeed Altitude Reporting Facility
EDT Latitude Longitude Course Direction KTS MPH feet Rate Location/Type
Wed 09:41:34 AM 38.0633 -84.5064 116° Southeast 215 247 5,100  Level Indianapolis Center
Wed 09:42:36 AM 38.0331 -84.4269 116° Southeast 257 296 8,100 2,371 Climbing Indianapolis Center
Wed 09:43:38 AM 37.9414 -84.3953 165° South 288 331 10,000 1,548 Climbing Indianapolis Center
Wed 09:44:40 AM 37.8594 -84.3750 169° South 295 339 11,300 1,500 Climbing Indianapolis Center
Wed 09:45:42 AM 37.7575 -84.3517 170° South 360 414 13,100 2,081 Climbing Indianapolis Center
Wed 09:46:44 AM 37.6514 -84.3269 170° South 381 438 15,600 2,274 Climbing Indianapolis Center
Wed 09:47:46 AM 37.5422 -84.2981 168° South 395 455 17,800 1,984 Climbing Indianapolis Center
Wed 09:48:48 AM 37.4086 -84.2656 169° South 413 475 19,700 1,839 Climbing Indianapolis Center
Wed 09:49:50 AM 37.2903 -84.2369 169° South 424 488 21,600 1,548 Climbing Indianapolis Center
Wed 09:50:52 AM 37.1700 -84.2056 168° South 435 501 22,900 1,452 Climbing Indianapolis Center
Wed 09:51:54 AM 37.0456 -84.1750 169° South 449 517 24,600 1,694 Climbing Indianapolis Center
Wed 09:52:56 AM 36.9211 -84.1442 169° South 455 524 26,400 1,776 Climbing Indianapolis Center
Wed 09:53:59 AM 36.7756 -84.1075 169° South 455 524 28,300 1,632 Climbing Indianapolis Center
Wed 09:55:01 AM 36.6539 -84.0894 173° South 444 511 29,800 1,306 Climbing Indianapolis Center
Wed 09:56:03 AM 36.5325 -84.0931 181° South 437 503 31,000 677 Climbing Indianapolis Center
Wed 09:57:05 AM 36.4233 -84.0947 181° South 433 498 31,200 629 Climbing Indianapolis Center
Wed 09:58:07 AM 36.2808 -84.1086 184° South 430 495 32,300 871 Climbing Indianapolis Center
Wed 09:59:09 AM 36.1631 -84.1250 186° South 428 493 33,000 424 Climbing Indianapolis Center
Wed 09:59:46 AM 36.0875 -84.1389 188° South 428 493 33,000  Level Atlanta Center
Wed 10:00:46 AM 35.9686 -84.1492 184° South 428 493 33,000  Level Atlanta Center
Wed 10:01:46 AM 35.8517 -84.1642 186° South 423 487 33,000  Level Atlanta Center
Wed 10:02:46 AM 35.7350 -84.1794 186° South 428 493 33,000  Level Atlanta Center
Wed 10:03:46 AM 35.6181 -84.1947 186° South 428 493 33,000  Level Atlanta Center
Wed 10:04:46 AM 35.5011 -84.2122 187° South 428 493 33,000  Level Atlanta Center
Wed 10:05:46 AM 35.3844 -84.2247 185° South 428 493 33,000  Level Atlanta Center
Wed 10:06:46 AM 35.2675 -84.2397 186° South 428 493 33,000  Level Atlanta Center
Wed 10:07:46 AM 35.1486 -84.2522 185° South 428 493 33,000  Level Atlanta Center
Wed 10:08:46 AM 35.0317 -84.2669 186° South 423 487 33,000  Level Atlanta Center
Wed 10:09:46 AM 34.9147 -84.2794 185° South 423 487 33,000  Level Atlanta Center
Wed 10:10:46 AM 34.7978 -84.2942 186° South 423 487 33,000  Level Atlanta Center
Wed 10:11:46 AM 34.6767 -84.3089 186° South 428 493 33,000  Level Atlanta Center
Wed 10:12:46 AM 34.5703 -84.3214 186° South 428 493 33,000  Level Atlanta Center
Wed 10:13:46 AM 34.4533 -84.3361 186° South 423 487 33,000  Level Atlanta Center
Wed 10:14:46 AM 34.3344 -84.3533 187° South 430 495 33,000  Level Atlanta Center
Wed 10:15:46 AM 34.2175 -84.3653 185° South 430 495 33,000  Level Atlanta Center
Wed 10:16:46 AM 34.0944 -84.3825 187° South 436 502 33,000  Level Atlanta Center
Wed 10:17:46 AM 33.9794 -84.3944 185° South 431 496 33,000  Level Atlanta Center
Wed 10:18:46 AM 33.8625 -84.4092 186° South 431 496 33,000  Level Atlanta Center
Wed 10:19:46 AM 33.7436 -84.4236 186° South 425 489 33,000  Level Atlanta Center
Wed 10:20:46 AM 33.6286 -84.4381 186° South 420 483 33,000  Level Atlanta Center
Wed 10:21:46 AM 33.5078 -84.4375 180° South 430 495 33,000  Level Atlanta Center
Wed 10:22:46 AM 33.3867 -84.4319 178° South 425 489 33,000  Level Atlanta Center
Wed 10:23:46 AM 33.2717 -84.4289 179° South 425 489 33,000  Level Atlanta Center
Wed 10:24:46 AM 33.1528 -84.4283 180° South 420 483 33,000  Level Atlanta Center
Wed 10:25:46 AM 33.0317 -84.4303 181° South 420 483 33,000  Level Atlanta Center
Wed 10:26:46 AM 32.9150 -84.4272 179° South 420 483 33,000  Level Atlanta Center
Wed 10:27:46 AM 32.7875 -84.4194 177° South 420 483 33,000  Level Atlanta Center
Wed 10:28:46 AM 32.6708 -84.4164 179° South 420 483 33,000  Level Atlanta Center
Wed 10:29:46 AM 32.5539 -84.4158 180° South 420 483 33,000  Level Atlanta Center
Wed 10:30:46 AM 32.4389 -84.4106 178° South 420 483 33,000  Level Atlanta Center
Wed 10:31:46 AM 32.3200 -84.4100 180° South 420 483 33,000  Level Atlanta Center
Wed 10:32:46 AM 32.2053 -84.4094 180° South 420 483 33,000  Level Atlanta Center
Wed 10:33:46 AM 32.0883 -84.4067 179° South 420 483 33,000  Level Atlanta Center
Wed 10:34:20 AM 32.0219 -84.4044 178° South 418 481 33,000  Level Jacksonville Center
Wed 10:35:20 AM 31.9069 -84.4025 179° South 412 474 33,000  Level Jacksonville Center
Wed 10:36:20 AM 31.7922 -84.3983 178° South 412 474 33,000  Level Jacksonville Center
Wed 10:37:20 AM 31.6714 -84.3719 169° South 424 488 33,000  Level Jacksonville Center
Wed 10:38:20 AM 31.5550 -84.3383 166° South 430 495 33,000  Level Jacksonville Center
Wed 10:39:20 AM 31.4383 -84.3050 166° South 430 495 33,000  Level Jacksonville Center
Wed 10:40:21 AM 31.3175 -84.2764 169° South 430 495 33,000  Level Jacksonville Center
Wed 10:41:20 AM 31.1989 -84.2478 168° South 435 501 33,000  Level Jacksonville Center
Wed 10:42:20 AM 31.0822 -84.2169 167° South 435 501 33,000  Level Jacksonville Center
Wed 10:43:20 AM 30.9614 -84.1839 167° South 435 501 33,000  Level Jacksonville Center
Wed 10:44:20 AM 30.8428 -84.1531 167° South 435 501 33,000  Level Jacksonville Center
Wed 10:45:20 AM 30.7261 -84.1225 167° South 435 501 33,000  Level Jacksonville Center
Wed 10:46:21 AM 30.6094 -84.0969 169° South 429 494 33,000  Level Jacksonville Center
Wed 10:47:20 AM 30.4928 -84.0642 166° South 429 494 33,000  Level Jacksonville Center
Wed 10:48:20 AM 30.3742 -84.0339 168° South 429 494 33,000  Level Jacksonville Center
Wed 10:49:21 AM 30.2556 -84.0011 167° South 429 494 33,000  Level Jacksonville Center
Wed 10:50:21 AM 30.1453 -83.9542 160° South 429 494 33,000  Level Jacksonville Center
Wed 10:51:20 AM 30.0328 -83.8978 157° South 436 502 33,000  Level Jacksonville Center
Wed 10:52:20 AM 29.9228 -83.8439 157° South 436 502 33,000  Level Jacksonville Center
Wed 10:53:20 AM 29.8061 -83.7950 160° South 431 496 33,000  Level Jacksonville Center
Wed 10:54:20 AM 29.7019 -83.7414 156° South 431 496 33,000  Level Jacksonville Center
Wed 10:55:21 AM 29.5856 -83.6903 159° South 431 496 33,000  Level Jacksonville Center
Wed 10:56:20 AM 29.4731 -83.6344 157° South 436 502 33,000 -706 Level Jacksonville Center
Wed 10:57:20 AM 29.3692 -83.5764 154° Southeast 431 496 31,600 -2,231 Descending Jacksonville Center
Wed 10:58:21 AM 29.2692 -83.5400 162° South 425 489 28,500 -2,800 Descending Jacksonville Center
Wed 10:59:20 AM 29.1544 -83.4750 154° Southeast 435 501 26,000 -2,246 Descending Jacksonville Center
Wed 11:01:20 AM 28.9256 -83.3194 149° Southeast 459 528 21,800 -2,000 Descending Jacksonville Center
Wed 11:02:20 AM 28.8194 -83.2575 153° Southeast 454 522 20,000 -1,750 Descending Jacksonville Center
Wed 11:03:20 AM 28.7214 -83.1981 152° Southeast 426 490 18,300 -1,636 Descending Jacksonville Center
Wed 11:05:16 AM 28.5333 -83.0833 152° Southeast 386 444 15,200 -1,602 Descending Tampa TRACON
Wed 11:06:16 AM 28.4500 -83.0167 145° Southeast 347 399 13,600 -1,400 Descending Tampa TRACON
Wed 11:07:16 AM 28.3667 -82.9667 152° Southeast 319 367 12,400 -1,421 Descending Tampa TRACON
Wed 11:08:10 AM 28.3000 -82.9333 156° South 301 346 10,900 -1,684 Descending Tampa TRACON
Wed 11:09:10 AM 28.2167 -82.9000 161° South 299 344 9,200 -1,700 Descending Tampa TRACON
Wed 11:10:10 AM 28.1500 -82.8667 156° South 299 344 7,500 -1,800 Descending Tampa TRACON
Wed 11:11:10 AM 28.0833 -82.8333 156° South 290 334 5,600 -1,636 Descending Tampa TRACON
Wed 11:12:11 AM 28.0000 -82.8000 161° South 247 284 4,200 -1,438 Descending Tampa TRACON
Wed 11:13:11 AM 27.9500 -82.7667 150° Southeast 209 241 2,700 -768 Descending Tampa TRACON
Wed 11:14:16 AM 27.9000 -82.7667 180° South 176 203 2,600 -300 Descending Tampa TRACON
Wed 11:15:11 AM 27.8500 -82.7667 180° South 182 209 2,100 -522 Descending Tampa TRACON
Wed 11:16:11 AM 27.8333 -82.7333 119° Southeast 170 196 1,600 -500 Descending Tampa TRACON
Wed 11:17:11 AM 27.8333 -82.6833 90° East 146 168 1,100 -500 Descending Tampa TRACON
Wed 11:18:11 AM 27.8667 -82.6833 360° North 139 160 600 -500 Descending Tampa TRACON

Login

Don't have an account? Register now (free) for customized features, flight alerts, and more!